Time;durP1;ratioP1;P1;durP2;ratioP2;P2;SDS_P1;SDS_P2;PMS_P1;PMS_P2;Temp;Humidity;BMP_temperature;BMP_pressure;BME280_temperature;BME280_humidity;BME280_pressure;Samples;Min_cycle;Max_cycle;Signal;HPM_P1;HPM_P2
2021/03/22 00:01:37;;;;;;;22.15;17.40;;;6.60;99.90;;;6.42;95.38;102361.41;4184969;28;20033;-70
2021/03/22 00:03:38;;;;;;;22.95;17.02;;;6.60;99.90;;;6.46;94.27;102361.09;4184819;28;20029;-70
2021/03/22 00:05:39;;;;;;;21.13;16.30;;;6.60;99.90;;;6.30;95.04;102347.19;4183685;28;20033;-70
2021/03/22 00:07:40;;;;;;;23.48;16.10;;;6.60;99.90;;;6.39;95.46;102367.63;4172630;28;20025;-70
2021/03/22 00:09:41;;;;;;;23.55;16.67;;;6.60;99.90;;;6.47;95.36;102365.44;4175896;28;20025;-70
2021/03/22 00:11:42;;;;;;;22.13;16.08;;;6.60;99.90;;;6.54;93.44;102361.50;4184684;28;20017;-70
2021/03/22 00:13:42;;;;;;;20.15;16.33;;;6.60;99.90;;;6.37;94.77;102366.03;4184690;28;20036;-70
2021/03/22 00:15:44;;;;;;;20.08;15.93;;;6.60;99.90;;;6.30;95.43;102369.97;4184995;28;20025;-70
2021/03/22 00:17:46;;;;;;;22.33;16.08;;;6.50;99.90;;;6.25;95.86;102367.59;4184917;28;20496;-70
2021/03/22 00:19:46;;;;;;;23.42;15.40;;;6.50;99.90;;;6.21;95.82;102368.72;4183760;28;20025;-70
2021/03/22 00:21:47;;;;;;;19.00;15.02;;;6.40;99.90;;;6.13;95.79;102365.69;4184741;28;20043;-70
2021/03/22 00:23:48;;;;;;;19.40;15.65;;;6.40;99.90;;;6.04;96.13;102364.44;4184838;28;20040;-70
2021/03/22 00:25:50;;;;;;;20.02;15.10;;;6.40;99.90;;;6.09;95.94;102372.88;4183396;28;20029;-70
2021/03/22 00:27:51;;;;;;;20.02;15.68;;;6.30;99.90;;;6.06;95.52;102373.03;4179141;28;20539;-70
2021/03/22 00:29:52;;;;;;;20.77;15.60;;;6.30;99.90;;;6.10;95.75;102373.72;4182042;28;20572;-70
2021/03/22 00:31:52;;;;;;;20.92;15.93;;;6.30;99.90;;;6.04;95.31;102377.53;4184754;28;20021;-70
2021/03/22 00:33:53;;;;;;;22.38;15.70;;;6.20;99.90;;;6.06;95.33;102382.69;4187590;28;20037;-70
2021/03/22 00:35:54;;;;;;;22.10;16.15;;;6.20;99.90;;;6.01;95.18;102369.00;4188161;28;20546;-70
2021/03/22 00:37:56;;;;;;;22.35;16.20;;;6.20;99.90;;;6.00;95.58;102369.94;4187998;28;20033;-70
2021/03/22 00:39:57;;;;;;;24.95;16.63;;;6.20;99.90;;;6.06;94.96;102364.38;4186779;28;20029;-70
2021/03/22 00:41:58;;;;;;;22.10;17.15;;;6.20;99.90;;;6.10;94.68;102368.47;4187828;28;20021;-70
2021/03/22 00:43:59;;;;;;;18.50;14.95;;;6.20;99.90;;;6.05;95.04;102366.13;4188081;28;20052;-70
2021/03/22 00:46:01;;;;;;;22.52;16.20;;;6.20;99.90;;;6.15;94.69;102363.84;4186657;28;20033;-70
2021/03/22 00:48:03;;;;;;;23.35;17.17;;;6.20;99.90;;;6.25;93.67;102357.13;4187991;28;20025;-70
2021/03/22 00:50:08;;;;;;;23.80;15.48;;;6.30;99.90;;;6.35;93.51;102368.75;4187726;28;20500;-70
2021/03/22 00:52:11;;;;;;;24.88;17.45;;;6.30;99.90;;;6.26;93.61;102356.19;4188063;28;20124;-70
2021/03/22 00:54:12;;;;;;;25.20;16.45;;;6.40;99.90;;;6.31;93.04;102372.47;4186644;28;20029;-70
2021/03/22 00:56:13;;;;;;;21.38;16.38;;;6.50;99.90;;;6.25;93.85;102359.72;4174533;28;20025;-70
2021/03/22 00:58:15;;;;;;;19.77;15.48;;;6.40;99.90;;;6.20;93.78;102364.41;4178145;28;20048;-70
2021/03/22 01:00:36;;;;;;;25.08;16.95;;;6.40;99.90;;;6.15;94.61;102358.59;4187934;28;20104;-70
2021/03/22 01:02:37;;;;;;;22.52;15.52;;;6.40;99.90;;;6.27;93.77;102357.88;4185829;28;20056;-70
2021/03/22 01:04:38;;;;;;;21.73;15.55;;;6.40;99.90;;;6.17;94.34;102359.34;4177036;28;20512;-70
2021/03/22 01:06:39;;;;;;;24.85;15.98;;;6.40;99.90;;;6.17;94.08;102355.88;4180237;28;20036;-70
2021/03/22 01:08:41;;;;;;;20.40;15.63;;;6.40;99.90;;;6.18;94.08;102363.66;4203046;28;20059;-70
2021/03/22 01:11:13;;;;;;;24.58;15.80;;;6.40;99.90;;;6.19;93.64;102364.47;4186363;28;20040;-70
2021/03/22 01:13:21;;;;;;;21.92;16.02;;;6.40;99.90;;;6.15;92.65;102361.22;4196564;28;20041;-70
2021/03/22 01:15:22;;;;;;;23.55;15.73;;;6.40;99.90;;;6.04;92.09;102369.66;4186156;28;20159;-70
2021/03/22 01:17:23;;;;;;;21.50;15.27;;;6.30;99.90;;;5.97;92.97;102359.66;4175896;28;20404;-70
2021/03/22 01:19:27;;;;;;;25.20;15.65;;;6.30;99.90;;;5.88;94.08;102355.78;4186358;28;20033;-70
2021/03/22 01:21:35;;;;;;;20.70;13.80;;;6.20;99.90;;;5.92;93.73;102367.75;4181380;28;20113;-70
2021/03/22 01:23:36;;;;;;;19.17;13.70;;;6.20;99.90;;;5.87;94.61;102371.56;4186770;28;20045;-70
2021/03/22 01:25:38;;;;;;;19.83;13.52;;;6.20;99.90;;;5.91;94.27;102363.44;4187244;28;20027;-70
2021/03/22 01:27:40;;;;;;;21.58;15.65;;;6.10;99.90;;;6.01;93.78;102372.47;4187488;28;20036;-70
2021/03/22 01:29:42;;;;;;;19.15;14.60;;;6.10;99.90;;;6.03;93.22;102360.13;4186200;28;20036;-70
2021/03/22 01:31:44;;;;;;;20.17;14.15;;;6.20;99.90;;;5.94;94.36;102359.81;4185336;28;20469;-70
2021/03/22 01:33:49;;;;;;;22.38;14.68;;;6.20;99.90;;;5.90;93.85;102347.81;4186222;28;20040;-70
2021/03/22 01:35:51;;;;;;;20.25;14.50;;;6.10;99.90;;;5.92;94.25;102364.28;4185701;28;20025;-70
2021/03/22 01:37:52;;;;;;;23.13;15.00;;;6.10;99.90;;;5.86;94.54;102368.09;4183300;28;20037;-70
2021/03/22 01:39:53;;;;;;;19.02;13.45;;;6.10;99.90;;;5.91;92.38;102366.03;4182157;28;20032;-70
2021/03/22 01:42:01;;;;;;;18.10;13.40;;;6.10;99.90;;;5.79;92.35;102371.13;4170421;28;20076;-70
2021/03/22 01:44:36;;;;;;;16.20;12.23;;;6.10;99.90;;;5.69;93.25;102364.69;4179970;28;20029;-70
2021/03/22 01:46:38;;;;;;;17.73;13.07;;;6.00;99.90;;;5.65;94.35;102369.25;4173473;28;20090;-70
2021/03/22 01:48:39;;;;;;;20.05;14.70;;;5.90;99.90;;;5.54;94.67;102348.06;4178315;28;20123;-70
2021/03/22 01:50:40;;;;;;;25.77;13.95;;;5.90;99.90;;;5.53;94.24;102355.06;4186827;28;20049;-70
2021/03/22 01:52:45;;;;;;;18.65;13.60;;;5.80;99.90;;;5.62;93.93;102353.72;4185746;28;20055;-70
2021/03/22 01:54:47;;;;;;;22.77;14.30;;;5.80;99.90;;;5.55;93.84;102362.84;4175613;28;20052;-70
2021/03/22 01:56:55;;;;;;;21.17;14.10;;;5.80;99.90;;;5.54;94.50;102350.69;4178862;28;20052;-70
2021/03/22 01:58:56;;;;;;;20.15;15.55;;;5.80;99.90;;;5.57;93.69;102351.34;4186831;28;20171;-70
2021/03/22 02:00:57;;;;;;;20.52;14.23;;;5.70;99.90;;;5.49;94.14;102352.72;4187110;28;20024;-70
2021/03/22 02:03:09;;;;;;;20.75;13.57;;;5.60;99.90;;;5.44;93.99;102355.56;4186774;28;20065;-70
2021/03/22 02:05:16;;;;;;;17.48;14.35;;;5.70;99.90;;;5.59;92.23;102354.72;4184559;28;20021;-70
2021/03/22 02:07:17;;;;;;;16.23;13.13;;;5.60;99.90;;;5.49;91.66;102342.25;4186066;28;20037;-70
2021/03/22 02:09:18;;;;;;;16.65;13.35;;;5.60;99.90;;;5.38;91.64;102334.13;4185651;28;20059;-70
2021/03/22 02:11:32;;;;;;;22.90;14.02;;;5.60;99.90;;;5.34;91.38;102337.84;4178023;28;20032;-70
2021/03/22 02:13:36;;;;;;;17.35;13.70;;;5.50;99.90;;;5.21;93.22;102340.28;4183363;28;20028;-70
2021/03/22 02:15:40;;;;;;;23.50;15.00;;;5.50;99.90;;;5.38;92.37;102331.50;4201837;28;20025;-70
2021/03/22 02:17:56;;;;;;;23.48;15.13;;;5.60;99.90;;;5.37;94.02;102338.53;4185414;28;20025;-70
2021/03/22 02:21:04;;;;;;;19.48;13.45;;;5.50;99.90;;;5.29;94.33;102339.84;4183667;28;20033;-70
2021/03/22 02:23:54;;;;;;;18.58;14.38;;;5.50;99.90;;;5.25;93.89;102333.13;4119404;28;20406;-70
2021/03/22 02:25:57;;;;;;;21.80;13.57;;;5.50;99.90;;;5.27;94.05;102332.09;4103201;29;20035;-70
2021/03/22 02:28:52;;;;;;;18.33;12.57;;;5.50;99.90;;;5.28;93.81;102325.94;4126932;28;20402;-70
2021/03/22 02:31:23;;;;;;;19.90;12.88;;;5.50;99.90;;;5.38;93.76;102328.88;4180311;28;20029;-70
2021/03/22 02:33:54;;;;;;;15.93;12.63;;;5.50;99.90;;;5.29;92.93;102332.00;4186465;28;20022;-70
2021/03/22 02:36:13;;;;;;;17.17;13.07;;;5.50;99.90;;;5.36;92.29;102346.44;4184985;28;20029;-70
2021/03/22 02:38:25;;;;;;;23.55;13.93;;;5.50;99.90;;;5.37;91.64;102338.53;4186265;28;20479;-70
2021/03/22 02:40:42;;;;;;;19.20;11.43;;;5.50;99.90;;;5.48;91.22;102344.00;4184986;28;20048;-70
2021/03/22 02:42:47;;;;;;;17.65;11.77;;;5.60;99.90;;;5.48;91.73;102337.94;4184531;28;20063;-70
2021/03/22 02:44:48;;;;;;;17.17;11.48;;;5.60;99.90;;;5.40;91.99;102333.13;4184875;28;20416;-70
2021/03/22 02:47:03;;;;;;;17.60;11.05;;;5.50;99.90;;;5.48;91.21;102341.41;4177080;28;20029;-70
2021/03/22 02:49:10;;;;;;;17.48;11.35;;;5.60;99.90;;;5.53;91.41;102330.66;4185931;28;20029;-70
2021/03/22 02:51:56;;;;;;;18.98;11.73;;;5.70;99.90;;;5.43;90.71;102338.19;4168252;28;20018;-71
2021/03/22 02:54:35;;;;;;;19.10;9.65;;;5.70;99.90;;;5.48;90.76;102336.16;4177746;28;20459;-70
2021/03/22 02:56:59;;;;;;;17.63;11.13;;;5.70;99.90;;;5.45;91.30;102331.09;4185234;28;20033;-71
2021/03/22 02:59:40;;;;;;;18.45;10.85;;;5.70;99.90;;;5.30;92.33;102333.69;4184611;28;20029;-70
2021/03/22 03:01:48;;;;;;;15.10;10.63;;;5.60;99.90;;;5.29;91.91;102335.47;4179301;28;20025;-71
2021/03/22 03:03:54;;;;;;;18.17;10.80;;;5.50;99.90;;;5.34;91.01;102338.69;4184465;28;20074;-70
2021/03/22 03:05:55;;;;;;;20.42;10.60;;;5.60;99.90;;;5.28;91.41;102338.19;4172027;28;20021;-70
2021/03/22 03:07:59;;;;;;;18.33;10.85;;;5.60;99.90;;;5.19;92.36;102323.84;4176668;28;20021;-70
2021/03/22 03:10:00;;;;;;;;;;;5.60;99.90;;;5.19;92.15;102333.44;4184985;28;20021;-70
2021/03/22 03:12:12;;;;;;;13.93;10.00;;;5.50;99.90;;;5.30;91.77;102336.31;4183075;28;19916;-70
2021/03/22 03:14:14;;;;;;;19.38;10.38;;;5.60;99.90;;;5.15;91.84;102317.06;4185933;28;20384;-70
2021/03/22 03:16:14;;;;;;;14.88;10.68;;;5.50;99.90;;;5.34;91.37;102337.84;4185782;28;20112;-70
2021/03/22 03:18:16;;;;;;;14.98;10.15;;;5.50;99.90;;;5.22;91.60;102339.38;4185699;28;20029;-70
2021/03/22 03:20:26;;;;;;;17.30;11.75;;;5.50;99.90;;;5.19;90.76;102333.44;4185598;28;20486;-70
2021/03/22 03:22:27;;;;;;;16.30;10.75;;;5.50;99.90;;;5.07;92.37;102324.50;4185622;28;20039;-71
2021/03/22 03:24:28;;;;;;;17.83;10.15;;;5.40;99.90;;;5.09;91.87;102325.25;4184555;28;20443;-70
2021/03/22 03:26:29;;;;;;;18.98;10.35;;;5.40;99.90;;;5.06;92.48;102330.63;4180855;28;20036;-71
2021/03/22 03:28:30;;;;;;;15.57;10.60;;;5.40;99.90;;;4.96;93.27;102334.66;4185162;28;20029;-70
2021/03/22 03:30:36;;;;;;;19.15;10.38;;;5.30;99.90;;;5.02;93.61;102342.16;4185660;28;20036;-70
2021/03/22 03:32:37;;;;;;;16.23;10.60;;;5.20;99.90;;;5.13;92.04;102324.16;4185374;28;20134;-70
2021/03/22 03:34:39;;;;;;;19.58;10.02;;;5.30;99.90;;;5.19;91.48;102334.28;4185373;28;20113;-70
2021/03/22 03:36:40;;;;;;;17.05;10.00;;;5.30;99.90;;;5.06;91.50;102338.47;4185548;28;20567;-70
2021/03/22 03:38:41;;;;;;;15.05;10.18;;;5.30;99.90;;;4.95;92.68;102335.59;4185382;28;20040;-70
2021/03/22 03:40:45;;;;;;;21.52;10.30;;;5.20;99.90;;;4.86;92.37;102336.94;4174745;28;20396;-70
2021/03/22 03:42:46;;;;;;;;;;;5.10;99.90;;;4.83;91.82;102336.25;4182149;28;20033;-70
2021/03/22 03:44:47;;;;;;;14.32;9.27;;;5.10;99.90;;;4.79;92.82;102338.16;4173343;28;19915;-70
2021/03/22 03:46:48;;;;;;;14.45;8.95;;;5.10;99.90;;;4.76;92.36;102340.94;4185385;28;20025;-70
2021/03/22 03:48:49;;;;;;;15.77;9.63;;;5.00;99.90;;;4.80;91.78;102336.41;4185333;28;20389;-70
2021/03/22 03:50:55;;;;;;;18.95;9.57;;;5.00;99.90;;;4.72;92.02;102334.16;4184937;28;20128;-70
2021/03/22 03:52:57;;;;;;;14.00;9.38;;;5.00;99.90;;;4.68;93.16;102343.13;4183982;28;20029;-71
2021/03/22 03:54:58;;;;;;;14.65;9.45;;;5.00;99.90;;;4.70;90.54;102332.56;4175553;28;20400;-70
2021/03/22 03:56:59;;;;;;;15.93;9.13;;;4.90;99.90;;;4.68;91.51;102337.88;4161936;28;20068;-70
2021/03/22 03:59:00;;;;;;;13.80;9.23;;;4.90;99.90;;;4.59;91.65;102340.97;4183048;28;20056;-70
2021/03/22 04:01:02;;;;;;;12.25;8.00;;;4.80;99.90;;;4.55;92.13;102333.34;4185247;28;20484;-70
2021/03/22 04:03:39;;;;;;;16.25;8.45;;;4.80;99.90;;;4.60;91.34;102341.81;4183681;28;20029;-70
2021/03/22 04:05:40;;;;;;;18.08;8.25;;;4.80;99.90;;;4.58;90.01;102335.81;4184466;28;20028;-70
2021/03/22 04:07:41;;;;;;;13.88;8.23;;;4.70;99.90;;;4.64;89.46;102343.34;4183061;28;20060;-70
2021/03/22 04:09:42;;;;;;;13.70;8.90;;;4.80;99.90;;;4.46;90.48;102322.47;4176597;28;20094;-70
2021/03/22 04:11:47;;;;;;;11.57;7.60;;;4.70;99.90;;;4.48;90.07;102341.50;4180986;28;20021;-70
2021/03/22 04:13:48;;;;;;;15.65;9.02;;;4.70;99.90;;;4.34;90.73;102343.13;4183507;28;20021;-70
2021/03/22 04:15:50;;;;;;;14.25;8.65;;;4.60;99.90;;;4.30;91.15;102336.38;4175003;28;20118;-70
2021/03/22 04:17:51;;;;;;;11.48;8.15;;;4.60;99.90;;;4.29;91.48;102338.16;4184965;28;20020;-70
2021/03/22 04:19:52;;;;;;;14.57;9.23;;;4.50;99.90;;;4.33;90.22;102339.66;4183642;28;20024;-70
2021/03/22 04:21:53;;;;;;;15.40;9.20;;;4.50;99.90;;;4.27;90.59;102337.34;4184783;28;20516;-70
2021/03/22 04:23:57;;;;;;;12.35;7.57;;;4.50;99.90;;;4.31;89.15;102336.28;4184862;28;20108;-70
2021/03/22 04:25:58;;;;;;;13.02;8.40;;;4.50;99.90;;;4.30;88.99;102342.44;4183469;28;20146;-70
2021/03/22 04:27:59;;;;;;;13.98;7.88;;;4.40;99.90;;;4.18;89.27;102348.25;4181622;28;20051;-70
2021/03/22 04:30:00;;;;;;;13.40;7.63;;;4.40;99.90;;;4.10;90.70;102342.59;4183695;28;20033;-70
2021/03/22 04:32:00;;;;;;;11.43;7.32;;;4.40;99.90;;;4.02;90.03;102344.72;4174866;28;20017;-70
2021/03/22 04:34:03;;;;;;;14.05;7.63;;;4.30;99.90;;;3.92;91.28;102343.47;4184902;28;20079;-70
2021/03/22 04:36:05;;;;;;;17.00;9.25;;;4.30;99.90;;;4.00;90.87;102343.97;4183567;28;20037;-70
2021/03/22 04:38:05;;;;;;;16.35;8.40;;;4.20;99.90;;;4.08;90.47;102351.41;4182793;28;20519;-70
2021/03/22 04:40:08;;;;;;;16.25;9.07;;;4.30;99.90;;;3.99;90.97;102337.06;4179073;28;20025;-70
2021/03/22 04:42:10;;;;;;;14.52;8.15;;;4.30;99.90;;;4.26;89.73;102351.34;4176073;28;20047;-70
2021/03/22 04:44:11;;;;;;;17.63;9.65;;;4.30;99.90;;;4.26;91.58;102345.28;4180697;28;20384;-70
2021/03/22 04:46:12;;;;;;;13.43;7.38;;;4.40;99.90;;;4.23;91.73;102348.91;4184528;28;20060;-70
2021/03/22 04:48:14;;;;;;;13.85;7.72;;;4.40;99.90;;;4.10;91.51;102323.44;4184745;28;20075;-70
2021/03/22 04:50:19;;;;;;;17.80;8.85;;;4.40;99.90;;;4.11;91.34;102346.03;4183293;28;20080;-70
2021/03/22 04:52:20;;;;;;;11.10;7.15;;;4.40;99.90;;;4.10;90.30;102350.41;4179901;28;20483;-70
2021/03/22 04:54:21;;;;;;;19.75;8.75;;;4.30;99.90;;;3.98;90.47;102339.72;4182977;28;20044;-70
2021/03/22 04:56:23;;;;;;;14.50;7.43;;;4.30;99.90;;;3.87;90.78;102337.63;4184490;28;20395;-70
2021/03/22 04:58:24;;;;;;;13.02;7.25;;;4.20;99.90;;;3.98;90.67;102344.94;4183495;28;20029;-70
2021/03/22 05:00:39;;;;;;;20.13;8.75;;;4.20;99.90;;;3.92;91.13;102341.72;4179466;28;20028;-70
2021/03/22 05:02:40;;;;;;;13.45;7.30;;;4.20;99.90;;;4.02;90.09;102347.34;4170767;28;20029;-70
2021/03/22 05:04:41;;;;;;;12.07;7.35;;;4.20;99.90;;;4.11;89.07;102344.28;4175780;28;20024;-70
2021/03/22 05:06:42;;;;;;;19.30;7.85;;;4.20;99.90;;;4.02;90.36;102347.34;4183234;28;20392;-70
2021/03/22 05:08:43;;;;;;;17.95;8.07;;;4.20;99.90;;;3.92;90.60;102346.09;4177385;28;20028;-70
2021/03/22 05:10:48;;;;;;;15.60;8.18;;;4.20;99.90;;;3.88;89.51;102329.72;4184392;28;20048;-70
2021/03/22 05:12:49;;;;;;;12.95;7.28;;;4.20;99.90;;;3.89;91.03;102348.84;4183289;28;20029;-70
2021/03/22 05:14:50;;;;;;;13.57;7.35;;;4.10;99.90;;;3.90;91.00;102347.94;4178807;28;20068;-70
2021/03/22 05:16:51;;;;;;;12.75;7.18;;;4.20;99.90;;;3.83;91.90;102350.00;4166489;28;20116;-70
2021/03/22 05:18:52;;;;;;;13.48;8.70;;;4.10;99.90;;;3.91;91.20;102347.03;4172559;28;20504;-70
2021/03/22 05:20:57;;;;;;;17.42;8.77;;;4.10;99.90;;;3.84;91.86;102343.88;4187563;28;20032;-70
2021/03/22 05:23:00;;;;;;;14.40;7.75;;;4.10;99.90;;;3.74;91.97;102341.75;4187461;28;20112;-70
2021/03/22 05:25:02;;;;;;;13.77;7.38;;;4.10;99.90;;;3.87;91.87;102346.31;4185860;28;20032;-70
2021/03/22 05:27:03;;;;;;;13.85;7.90;;;4.10;99.90;;;3.85;92.08;102349.94;4174979;28;20104;-69
2021/03/22 05:29:04;;;;;;;14.23;7.80;;;4.10;99.90;;;3.74;92.09;102341.75;4187428;28;20021;-70
2021/03/22 05:31:06;;;;;;;16.58;7.72;;;4.10;99.90;;;3.78;92.07;102345.91;4186112;28;20056;-70
2021/03/22 05:33:11;;;;;;;14.95;8.48;;;4.00;99.90;;;3.75;92.11;102346.06;4172080;28;20053;-70
2021/03/22 05:35:19;;;;;;;11.52;7.35;;;4.00;99.90;;;3.59;92.45;102345.06;4187364;28;20500;-70
2021/03/22 05:37:21;;;;;;;14.05;7.40;;;4.00;99.90;;;3.69;91.77;102354.19;4186039;28;20408;-70
2021/03/22 05:39:21;;;;;;;11.15;6.68;;;3.90;99.90;;;3.65;90.80;102347.41;4183363;28;20040;-70
2021/03/22 05:41:26;;;;;;;13.45;7.68;;;3.90;99.90;;;3.56;91.73;102345.22;4170642;28;20037;-70
2021/03/22 05:43:42;;;;;;;;;;;3.90;99.90;;;3.57;91.43;102349.53;4176495;28;20033;-70
2021/03/22 05:46:27;;;;;;;14.38;7.80;;;3.90;99.90;;;3.58;91.21;102348.63;4182377;28;20395;-70
2021/03/22 05:48:58;;;;;;;14.80;7.75;;;3.80;99.90;;;3.51;90.64;102345.44;4185818;28;20025;-70
2021/03/22 05:51:32;;;;;;;16.48;8.40;;;3.80;99.90;;;3.32;91.74;102342.00;4185248;28;20052;-70
2021/03/22 05:53:59;;;;;;;13.10;7.43;;;3.80;99.90;;;3.13;92.59;102339.41;4178686;28;20140;-70
2021/03/22 05:56:04;;;;;;;13.45;6.97;;;3.70;99.90;;;3.16;93.44;102335.81;4200536;28;20491;-70
2021/03/22 05:58:14;;;;;;;14.43;7.35;;;3.60;99.90;;;3.47;91.47;102358.69;4201785;28;20078;-70
2021/03/22 06:00:48;;;;;;;10.32;7.28;;;3.60;99.90;;;3.41;90.06;102357.22;4181504;28;20310;-70
2021/03/22 06:03:37;;;;;;;12.30;6.93;;;3.60;99.90;;;3.22;88.36;102333.78;4186826;28;20431;-70
2021/03/22 06:06:05;;;;;;;13.18;7.18;;;3.60;99.90;;;3.14;89.91;102355.88;4185389;28;20075;-70
2021/03/22 06:08:38;;;;;;;16.65;7.78;;;3.50;99.90;;;3.24;90.63;102355.41;4183222;28;20104;-70
2021/03/22 06:10:48;;;;;;;12.98;8.40;;;3.50;99.90;;;3.21;91.64;102352.94;4150736;28;20098;-70
2021/03/22 06:12:54;;;;;;;14.00;8.15;;;3.50;99.90;;;3.24;92.28;102347.56;4184870;28;20044;-70
2021/03/22 06:14:59;;;;;;;15.43;7.47;;;3.50;99.90;;;3.28;93.60;102364.78;4180584;28;20471;-70
2021/03/22 06:17:21;;;;;;;15.43;7.35;;;3.60;99.90;;;3.25;92.16;102370.13;4180619;28;20029;-70
2021/03/22 06:19:22;;;;;;;11.63;6.63;;;3.60;99.90;;;3.33;91.10;102362.81;4181377;28;20071;-69
2021/03/22 06:21:26;;;;;;;13.90;7.57;;;3.60;99.90;;;3.29;90.77;102348.19;4178163;28;20599;-68
2021/03/22 06:23:47;;;;;;;15.50;8.10;;;3.60;99.90;;;3.31;91.46;102363.78;4184092;28;20029;-69
2021/03/22 06:25:49;;;;;;;12.40;7.28;;;3.60;99.90;;;3.35;92.42;102367.94;4184774;28;20028;-69
2021/03/22 06:27:56;;;;;;;13.50;7.57;;;3.70;99.90;;;3.31;92.65;102356.81;4179766;28;20027;-69
2021/03/22 06:29:57;;;;;;;10.55;7.03;;;3.60;99.90;;;3.46;91.84;102357.88;4183491;28;20139;-69
2021/03/22 06:32:13;;;;;;;13.95;8.02;;;3.70;99.90;;;3.52;90.55;102360.19;4186073;28;20055;-69
2021/03/22 06:34:19;;;;;;;15.73;7.50;;;3.80;99.90;;;3.45;91.05;102358.78;4186470;28;20033;-69
2021/03/22 06:36:24;;;;;;;15.57;7.65;;;3.80;99.90;;;3.57;91.43;102370.41;4184729;28;20124;-69
2021/03/22 06:38:25;;;;;;;14.23;7.18;;;3.80;99.90;;;3.53;91.95;102372.31;4174467;28;20039;-69
2021/03/22 06:40:25;;;;;;;14.82;6.75;;;3.90;99.90;;;3.67;91.26;102382.13;4177906;28;20512;-70
2021/03/22 06:42:26;;;;;;;11.75;8.15;;;3.90;99.90;;;3.54;91.12;102376.63;4170945;28;20124;-72
2021/03/22 06:44:33;;;;;;;13.40;7.03;;;3.90;99.90;;;3.62;92.18;102384.06;4198610;28;20032;-72
2021/03/22 06:46:51;;;;;;;11.20;7.03;;;3.90;99.90;;;3.70;91.57;102380.19;4195363;28;20025;-72
2021/03/22 06:49:05;;;;;;;13.05;7.25;;;4.00;99.90;;;3.75;91.54;102374.75;4185925;28;20028;-72
2021/03/22 06:51:09;;;;;;;12.95;6.63;;;4.10;99.90;;;3.81;91.77;102375.31;4170492;28;20116;-72
2021/03/22 06:53:29;;;;;;;11.35;5.32;;;4.10;99.90;;;4.00;90.59;102375.31;4185856;28;20032;-71
2021/03/22 06:55:35;;;;;;;17.40;7.35;;;4.20;99.90;;;4.06;90.81;102374.97;4180525;28;20051;-73
2021/03/22 06:57:50;;;;;;;13.60;6.20;;;4.30;99.90;;;4.08;92.16;102383.59;4185327;28;20492;-72
2021/03/22 07:00:19;;;;;;;11.93;7.07;;;4.40;99.90;;;4.15;91.74;102379.75;4185541;28;20033;-72
2021/03/22 07:02:22;;;;;;;15.88;7.55;;;4.70;99.90;;;4.21;91.41;102382.06;4183991;28;20544;-72
2021/03/22 07:04:30;;;;;;;10.77;5.95;;;4.60;99.90;;;4.32;91.11;102392.84;4183229;28;20025;-71
2021/03/22 07:06:31;;;;;;;12.68;7.57;;;4.70;99.90;;;4.44;90.08;102389.63;4178118;28;20031;-72
2021/03/22 07:08:40;;;;;;;12.05;6.88;;;4.80;99.90;;;4.34;91.42;102396.22;4185590;28;20021;-71
2021/03/22 07:10:55;;;;;;;14.23;6.63;;;4.90;99.90;;;4.54;90.90;102392.59;4185312;28;20025;-70
2021/03/22 07:13:28;;;;;;;14.48;6.60;;;4.90;99.90;;;4.39;91.66;102383.78;4184985;28;20028;-70
2021/03/22 07:15:34;;;;;;;14.85;6.30;;;5.00;99.90;;;4.48;90.53;102372.84;4180967;28;20037;-70
2021/03/22 07:17:35;;;;;;;14.95;7.32;;;5.00;99.90;;;4.56;90.20;102389.94;4177534;28;20076;-70
2021/03/22 07:19:36;;;;;;;13.48;6.70;;;5.10;99.90;;;4.70;90.82;102400.53;4178575;28;20064;-71
2021/03/22 07:22:00;;;;;;;13.05;7.57;;;5.20;99.90;;;4.76;90.18;102403.69;4185080;28;20040;-71
2021/03/22 07:24:43;;;;;;;11.38;7.78;;;5.20;99.90;;;4.62;89.94;102374.78;4183461;28;20037;-71
2021/03/22 07:27:13;;;;;;;11.93;6.55;;;5.30;99.90;;;4.87;89.61;102405.72;4156956;28;20038;-71
2021/03/22 07:29:43;;;;;;;17.05;7.32;;;5.40;99.90;;;4.84;89.85;102405.88;4185459;28;20061;-70
2021/03/22 07:32:15;;;;;;;12.00;6.80;;;5.60;99.90;;;4.86;90.21;102404.91;4184964;28;20017;-71
2021/03/22 07:34:51;;;;;;;14.70;8.00;;;5.70;99.90;;;4.94;89.83;102401.88;4192407;28;20033;-70
2021/03/22 07:37:13;;;;;;;14.82;7.47;;;5.60;99.90;;;5.05;90.34;102403.97;4174525;28;20112;-70
2021/03/22 07:39:27;;;;;;;17.10;7.22;;;5.50;99.90;;;4.98;89.33;102413.88;4185107;28;20108;-71
2021/03/22 07:41:46;;;;;;;12.52;6.75;;;5.70;99.90;;;4.89;90.61;102412.59;4169943;28;20029;-70
2021/03/22 07:44:09;;;;;;;11.77;6.20;;;5.70;99.90;;;4.94;90.57;102415.81;4178218;28;20084;-70
2021/03/22 07:46:50;;;;;;;16.05;7.47;;;5.70;99.90;;;4.91;89.82;102415.97;4183644;28;20024;-70
2021/03/22 07:49:27;;;;;;;16.30;6.88;;;5.80;99.90;;;5.03;89.57;102414.47;4177937;28;20028;-70
2021/03/22 07:52:23;;;;;;;9.65;7.43;;;5.80;99.90;;;5.18;90.25;102416.31;4185246;28;20412;-70
2021/03/22 07:54:51;;;;;;;13.83;7.43;;;5.90;99.90;;;5.15;89.90;102397.31;4185357;28;20048;-69
2021/03/22 07:57:08;;;;;;;13.23;8.07;;;5.90;99.90;;;5.44;89.11;102423.59;4181319;28;20306;-69
2021/03/22 07:59:15;;;;;;;18.10;8.60;;;6.00;99.90;;;5.48;89.24;102419.06;4182466;28;20033;-70
2021/03/22 08:01:53;;;;;;;16.13;7.82;;;6.00;99.90;;;5.59;88.36;102417.56;4174307;28;20025;-70
2021/03/22 08:04:21;;;;;;;15.85;8.15;;;6.10;99.90;;;5.56;89.11;102428.19;4182755;28;20036;-70
2021/03/22 08:06:50;;;;;;;13.75;7.85;;;6.10;99.90;;;5.69;88.27;102425.75;4184784;28;20029;-70
2021/03/22 08:09:18;;;;;;;13.15;7.82;;;6.30;99.90;;;5.81;87.79;102426.84;4183468;28;20080;-70
2021/03/22 08:11:41;;;;;;;15.02;8.48;;;6.40;99.90;;;5.80;87.81;102426.00;4184736;28;20102;-70
2021/03/22 08:13:51;;;;;;;16.73;7.47;;;6.40;99.90;;;5.88;87.67;102430.88;4184777;28;20028;-70
2021/03/22 08:16:10;;;;;;;11.68;6.85;;;6.50;99.90;;;5.93;87.75;102421.81;4185205;28;20025;-70
2021/03/22 08:18:38;;;;;;;25.10;16.55;;;6.60;99.90;;;6.07;87.64;102424.50;4184988;28;20029;-73
2021/03/22 08:21:01;;;;;;;13.05;7.85;;;6.70;99.90;;;5.94;86.67;102427.91;4184639;28;20029;-73
2021/03/22 08:23:41;;;;;;;16.50;7.15;;;6.80;99.90;;;5.96;86.86;102429.50;4184642;28;20029;-73
2021/03/22 08:25:47;;;;;;;13.07;6.97;;;6.90;99.90;;;5.94;86.99;102430.53;4156024;28;20559;-73
2021/03/22 08:28:08;;;;;;;11.32;5.97;;;6.90;99.90;;;5.86;87.47;102432.72;4184882;28;20036;-73
2021/03/22 08:30:46;;;;;;;15.15;7.53;;;7.00;99.90;;;5.99;87.40;102421.47;4184691;28;20025;-73
2021/03/22 08:33:03;;;;;;;16.02;6.90;;;7.00;99.90;;;6.21;85.67;102415.88;4183640;28;20032;-73
2021/03/22 08:35:36;;;;;;;18.40;7.65;;;7.00;99.90;;;6.18;86.69;102431.78;4183634;28;20108;-73
2021/03/22 08:38:01;;;;;;;14.10;7.03;;;7.10;99.90;;;6.19;86.50;102436.06;4184724;28;20109;-73
2021/03/22 08:40:49;;;;;;;13.43;6.85;;;7.20;99.90;;;6.20;87.05;102429.91;4171403;28;20051;-73
2021/03/22 08:42:58;;;;;;;19.38;6.88;;;7.20;99.90;;;6.44;87.13;102425.91;4174474;28;20522;-73
2021/03/22 08:45:27;;;;;;;18.10;6.97;;;7.30;99.90;;;6.49;87.07;102429.09;4182978;28;20036;-73
2021/03/22 08:48:01;;;;;;;10.48;5.93;;;7.40;99.90;;;6.43;86.58;102431.22;4179897;28;20025;-73
2021/03/22 08:50:11;;;;;;;13.48;6.22;;;7.50;99.90;;;6.68;86.22;102434.13;4174394;28;20535;-72
2021/03/22 08:52:54;;;;;;;11.32;5.75;;;7.60;99.90;;;6.81;85.33;102436.88;4166651;28;20033;-73
2021/03/22 08:55:09;;;;;;;12.43;5.95;;;7.70;99.90;;;6.81;85.07;102437.69;4173103;28;20478;-73
2021/03/22 08:57:31;;;;;;;;;;;7.80;99.90;;;6.69;85.93;102434.00;4188154;28;20393;-73
2021/03/22 08:59:32;;;;;;;20.73;7.88;;;7.80;99.90;;;6.83;85.14;102414.00;4186351;28;19909;-73
2021/03/22 09:01:40;;;;;;;11.07;6.15;;;7.90;99.90;;;6.98;85.40;102421.81;4180183;28;20082;-73
2021/03/22 09:03:44;;;;;;;12.25;6.40;;;8.00;99.90;;;7.23;84.94;102427.25;4185989;28;20025;-73
2021/03/22 09:06:05;;;;;;;13.02;6.03;;;8.10;99.90;;;7.48;85.15;102423.97;4173467;28;20025;-73
2021/03/22 09:08:22;;;;;;;14.02;6.00;;;8.20;99.90;;;7.51;83.36;102412.44;4180900;28;20021;-73